Time;durP1;ratioP1;P1;durP2;ratioP2;P2;SDS_P1;SDS_P2;PMS_P1;PMS_P2;Temp;Humidity;BMP_temperature;BMP_pressure;BME280_temperature;BME280_humidity;BME280_pressure;Samples;Min_cycle;Max_cycle;Signal;HPM_P1;HPM_P2
2021/09/11 00:01:08;;;;;;;35.37;24.57;;;;;;;13.14;100.00;100385.39;1745209;80;21344;-73
2021/09/11 00:03:35;;;;;;;35.00;23.77;;;;;;;13.17;100.00;100384.20;1735130;80;21199;-73
2021/09/11 00:06:02;;;;;;;38.70;23.90;;;;;;;13.13;100.00;100378.55;1738445;80;21254;-72
2021/09/11 00:08:28;;;;;;;30.60;22.43;;;;;;;13.14;100.00;100377.55;1738176;80;21131;-73
2021/09/11 00:10:56;;;;;;;34.33;23.37;;;;;;;13.11;100.00;100376.14;1738189;80;21274;-73
2021/09/11 00:13:24;;;;;;;32.20;20.90;;;;;;;13.10;100.00;100381.56;1736769;80;21225;-73
2021/09/11 00:15:51;;;;;;;30.00;21.57;;;;;;;13.20;100.00;100385.93;1736500;80;21061;-72
2021/09/11 00:18:19;;;;;;;38.00;23.03;;;;;;;13.17;100.00;100381.08;1741428;80;21293;-72
2021/09/11 00:20:47;;;;;;;52.10;28.77;;;;;;;13.03;100.00;100384.65;1734885;80;21825;-73
2021/09/11 00:23:14;;;;;;;59.77;29.53;;;;;;;12.95;100.00;100394.78;1733344;80;21246;-72
2021/09/11 00:25:41;;;;;;;50.97;26.33;;;;;;;12.88;100.00;100392.16;1734030;80;21477;-72
2021/09/11 00:28:07;;;;;;;58.40;25.70;;;;;;;12.93;100.00;100394.19;1735364;80;21190;-72
2021/09/11 00:30:33;;;;;;;27.87;17.80;;;;;;;12.87;100.00;100393.14;1731617;80;21183;-72
2021/09/11 00:33:01;;;;;;;36.83;21.80;;;;;;;12.87;100.00;100397.57;1735051;80;22958;-72
2021/09/11 00:35:28;;;;;;;34.93;20.60;;;;;;;13.09;100.00;100403.50;1732304;80;22690;-73
2021/09/11 00:37:55;;;;;;;31.23;17.60;;;;;;;13.07;100.00;100404.22;1736761;80;21251;-72
2021/09/11 00:40:21;;;;;;;25.60;17.23;;;;;;;13.12;100.00;100401.81;1732112;80;21152;-72
2021/09/11 00:42:48;;;;;;;21.83;16.50;;;;;;;13.17;100.00;100396.78;1731853;80;21366;-72
2021/09/11 00:45:21;;;;;;;25.03;16.27;;;;;;;13.18;100.00;100401.01;1736667;80;21389;-72
2021/09/11 00:47:48;;;;;;;24.10;14.93;;;;;;;13.10;100.00;100402.50;1730796;80;21382;-72
2021/09/11 00:50:15;;;;;;;27.70;16.90;;;;;;;13.22;100.00;100406.19;1734245;80;20893;-71
2021/09/11 00:52:43;;;;;;;30.63;18.27;;;;;;;13.30;100.00;100399.49;1733084;80;21386;-71
2021/09/11 00:55:12;;;;;;;30.37;19.63;;;;;;;13.26;100.00;100399.58;1714408;82;21652;-72
2021/09/11 00:57:45;;;;;;;36.83;20.43;;;;;;;13.32;100.00;100398.78;1712085;82;21306;-72
2021/09/11 01:00:13;;;;;;;42.40;22.77;;;;;;;13.28;100.00;100398.87;1715075;82;21082;-72
2021/09/11 01:02:40;;;;;;;39.77;19.63;;;;;;;13.27;100.00;100397.77;1712488;82;21245;-71
2021/09/11 01:05:09;;;;;;;28.67;18.70;;;;;;;13.27;100.00;100398.57;1715836;82;21795;-72
2021/09/11 01:07:38;;;;;;;32.73;17.30;;;;;;;13.28;100.00;100398.87;1719370;82;21478;-72
2021/09/11 01:10:06;;;;;;;27.20;18.10;;;;;;;13.38;100.00;100394.58;1720384;82;21636;-72
2021/09/11 01:12:33;;;;;;;25.80;17.90;;;;;;;13.42;100.00;100393.17;1715781;82;21703;-72
2021/09/11 01:15:06;;;;;;;21.20;16.97;;;;;;;13.45;100.00;100391.47;1717136;82;21314;-73
2021/09/11 01:17:35;;;;;;;22.67;15.53;;;;;;;13.54;100.00;100393.40;1718558;82;21275;-73
2021/09/11 01:20:02;;;;;;;21.10;15.13;;;;;;;13.54;100.00;100394.70;1718274;82;21795;-72
2021/09/11 01:22:30;;;;;;;23.43;15.10;;;;;;;13.62;100.00;100397.13;1716230;82;21258;-72
2021/09/11 01:25:06;;;;;;;22.77;16.37;;;;;;;13.53;100.00;100400.95;1717192;82;21340;-75
2021/09/11 01:27:32;;;;;;;21.27;14.40;;;;;;;13.57;100.00;100402.17;1717212;82;21231;-75
2021/09/11 01:30:11;;;;;;;22.30;15.17;;;;;;;13.56;100.00;100408.39;1711323;82;21230;-73
2021/09/11 01:32:39;;;;;;;23.43;16.33;;;;;;;13.67;100.00;100409.13;1711745;82;21172;-74
2021/09/11 01:35:07;;;;;;;23.20;15.87;;;;;;;13.78;100.00;100406.41;1720388;82;23257;-75
2021/09/11 01:37:34;;;;;;;22.00;15.97;;;;;;;13.55;100.00;100409.41;1718279;82;21293;-74
2021/09/11 01:40:03;;;;;;;21.23;16.23;;;;;;;13.56;100.00;100411.02;1719024;82;21740;-73
2021/09/11 01:42:31;;;;;;;22.97;15.03;;;;;;;13.50;100.00;100413.94;1715346;82;21246;-74
2021/09/11 01:45:06;;;;;;;18.60;13.60;;;;;;;13.53;100.00;100411.44;1719378;82;21820;-74
2021/09/11 01:47:33;;;;;;;21.33;15.07;;;;;;;13.63;100.00;100411.83;1715716;82;21281;-72
2021/09/11 01:49:59;;;;;;;21.13;15.07;;;;;;;13.61;100.00;100412.55;1718716;82;21368;-73
2021/09/11 01:52:26;;;;;;;16.53;13.17;;;;;;;13.66;100.00;100417.19;1716550;82;21926;-74
2021/09/11 01:54:53;;;;;;;18.10;14.13;;;;;;;13.55;100.00;100413.33;1718682;82;21232;-74
2021/09/11 01:57:19;;;;;;;24.33;15.43;;;;;;;13.64;100.00;100410.85;1715676;81;21270;-73
2021/09/11 01:59:46;;;;;;;20.07;15.30;;;;;;;13.63;100.00;100410.02;1718613;82;21856;-73
2021/09/11 02:02:12;;;;;;;22.50;15.03;;;;;;;13.46;100.00;100410.61;1715274;82;21352;-73
2021/09/11 02:04:38;;;;;;;20.67;13.97;;;;;;;13.48;100.00;100412.00;1722187;81;21311;-73
2021/09/11 02:07:07;;;;;;;17.73;14.03;;;;;;;13.48;100.00;100406.77;1725198;81;21154;-74
2021/09/11 02:09:36;;;;;;;20.43;15.10;;;;;;;13.44;100.00;100406.05;1711058;81;21692;-75
2021/09/11 02:12:08;;;;;;;19.47;15.80;;;;;;;13.48;100.00;100406.77;1708083;81;21278;-73
2021/09/11 02:14:34;;;;;;;23.60;15.87;;;;;;;13.41;100.00;100405.97;1743694;80;21205;-76
2021/09/11 02:17:04;;;;;;;19.67;15.20;;;;;;;13.37;100.00;100408.17;1744725;80;21026;-76
2021/09/11 02:19:32;;;;;;;24.80;16.23;;;;;;;13.28;100.00;100415.08;1742174;80;21355;-74
2021/09/11 02:22:00;;;;;;;20.37;13.47;;;;;;;13.25;100.00;100411.54;1746567;80;21199;-76
2021/09/11 02:24:29;;;;;;;16.77;13.33;;;;;;;13.25;100.00;100415.47;1743843;80;21188;-76
2021/09/11 02:26:57;;;;;;;21.43;14.17;;;;;;;13.15;100.00;100415.31;1744242;80;21351;-76
2021/09/11 02:29:24;;;;;;;19.80;13.30;;;;;;;13.08;100.00;100421.53;1743068;80;21640;-76
2021/09/11 02:31:52;;;;;;;19.87;13.70;;;;;;;13.05;100.00;100420.60;1738653;80;21732;-76
2021/09/11 02:34:19;;;;;;;18.27;13.13;;;;;;;13.11;100.00;100419.84;1741505;80;21765;-75
2021/09/11 02:36:46;;;;;;;21.57;13.90;;;;;;;13.01;100.00;100419.38;1742623;80;21600;-77
2021/09/11 02:39:12;;;;;;;20.87;13.20;;;;;;;12.93;100.00;100419.55;1745764;80;21247;-78
2021/09/11 02:41:39;;;;;;;20.47;13.77;;;;;;;12.85;100.00;100417.91;1741404;80;21213;-78
2021/09/11 02:44:06;;;;;;;20.00;12.53;;;;;;;12.81;100.00;100417.98;1745448;80;21003;-74
2021/09/11 02:46:32;;;;;;;20.50;13.63;;;;;;;12.69;100.00;100417.72;1742451;80;21253;-77
2021/09/11 02:49:01;;;;;;;20.20;15.37;;;;;;;12.61;100.00;100424.39;1747994;80;21739;-77
2021/09/11 02:51:29;;;;;;;19.73;14.28;;;;;;;12.57;100.00;100420.04;1741729;80;21106;-78
2021/09/11 02:53:56;;;;;;;21.57;14.77;;;;;;;12.69;100.00;100422.95;1744034;80;20868;-77
2021/09/11 02:56:23;;;;;;;19.33;13.60;;;;;;;12.72;100.00;100422.55;1750282;80;21379;-78
2021/09/11 02:58:51;;;;;;;18.40;14.30;;;;;;;12.69;100.00;100425.57;1748837;80;21282;-78
2021/09/11 03:01:17;;;;;;;18.77;14.57;;;;;;;12.69;100.00;100428.19;1771173;78;63204;-70
2021/09/11 03:03:44;;;;;;;20.20;15.10;;;;;;;12.73;100.00;100432.50;1782623;79;21962;-68
2021/09/11 03:06:10;;;;;;;18.83;13.90;;;;;;;12.72;100.00;100432.20;1789860;79;21093;-69
2021/09/11 03:08:37;;;;;;;22.20;14.37;;;;;;;12.78;100.00;100428.83;1704875;81;21652;-69
2021/09/11 03:11:05;;;;;;;19.07;13.97;;;;;;;12.82;100.00;100426.94;1798747;79;22194;-69
2021/09/11 03:13:33;;;;;;;20.87;13.43;;;;;;;12.85;100.00;100427.86;1794146;79;21869;-69
2021/09/11 03:16:00;;;;;;;17.70;12.60;;;;;;;12.94;100.00;100424.58;1795556;79;21203;-71
2021/09/11 03:18:26;;;;;;;23.77;13.33;;;;;;;13.12;100.00;100422.24;1790095;78;21307;-69
2021/09/11 03:20:54;;;;;;;19.23;13.40;;;;;;;13.41;100.00;100420.84;1791142;79;21363;-70
2021/09/11 03:23:22;;;;;;;19.43;13.47;;;;;;;13.85;100.00;100423.76;1790062;78;21089;-69
2021/09/11 03:25:50;;;;;;;18.73;12.77;;;;;;;14.52;100.00;100427.20;1793722;79;21271;-68
2021/09/11 03:28:16;;;;;;;16.73;12.03;;;;;;;15.20;100.00;100426.80;1792019;79;22352;-69
2021/09/11 03:30:43;;;;;;;18.43;11.83;;;;;;;15.95;100.00;100421.73;1795644;78;21342;-67
2021/09/11 03:33:09;;;;;;;16.40;12.00;;;;;;;16.35;100.00;100425.84;1789956;78;22406;-70
2021/09/11 03:35:36;;;;;;;16.90;12.37;;;;;;;17.35;100.00;100420.27;1796118;79;22133;-69
2021/09/11 03:38:03;;;;;;;20.17;13.50;;;;;;;18.08;100.00;100418.72;1789680;78;21111;-68
2021/09/11 03:40:31;;;;;;;19.37;12.27;;;;;;;18.53;100.00;100414.18;1797829;79;20987;-69
2021/09/11 03:42:58;;;;;;;16.27;12.70;;;;;;;19.24;100.00;100415.33;1788345;78;21527;-70
2021/09/11 03:45:24;;;;;;;17.30;11.50;;;;;;;19.81;100.00;100406.86;1792535;79;21614;-70
2021/09/11 03:47:53;;;;;;;17.23;13.57;;;;;;;20.46;100.00;100405.95;1779871;78;21026;-69
2021/09/11 03:50:21;;;;;;;19.53;13.83;;;;;;;21.10;100.00;100399.58;1797485;79;20914;-68
2021/09/11 03:52:47;;;;;;;18.63;14.40;;;;;;;21.93;100.00;100401.94;1793062;79;21027;-68
2021/09/11 03:55:14;;;;;;;17.70;13.10;;;;;;;22.61;100.00;100394.13;1797043;79;20969;-70
2021/09/11 03:57:41;;;;;;;20.63;14.27;;;;;;;22.91;100.00;100403.58;1798600;78;21479;-71
2021/09/11 04:00:09;;;;;;;17.27;12.77;;;;;;;23.48;100.00;100396.50;1796057;78;21087;-71
2021/09/11 04:02:38;;;;;;;17.00;12.27;;;;;;;23.77;100.00;100402.94;1784172;78;21123;-72
2021/09/11 04:05:05;;;;;;;14.33;11.67;;;;;;;24.26;100.00;100401.54;1796063;78;22022;-69
2021/09/11 04:07:32;;;;;;;17.67;12.23;;;;;;;24.76;91.90;100401.92;1796631;79;21442;-69
2021/09/11 04:09:58;;;;;;;14.83;11.43;;;;;;;25.28;81.99;100406.47;1789679;79;21011;-70
2021/09/11 04:12:26;;;;;;;14.00;12.57;;;;;;;25.41;70.40;100403.70;1798281;78;21054;-69
2021/09/11 04:14:52;;;;;;;24.43;21.80;;;;;;;25.38;66.08;100404.25;1793814;79;21728;-71
2021/09/11 04:17:19;;;;;;;30.37;27.27;;;;;;;25.42;65.60;100406.11;1777180;78;21905;-70
2021/09/11 04:19:45;;;;;;;20.40;16.83;;;;;;;25.54;62.76;100411.64;1774751;78;21067;-70
2021/09/11 04:22:12;;;;;;;15.50;12.17;;;;;;;25.67;60.12;100409.11;1787574;79;20991;-68
2021/09/11 04:24:39;;;;;;;13.63;12.13;;;;;;;25.74;58.05;100411.45;1747443;80;21037;-70
2021/09/11 04:27:06;;;;;;;12.80;10.73;;;;;;;25.38;58.48;100412.26;1769453;78;21590;-70
2021/09/11 04:29:32;;;;;;;13.10;10.57;;;;;;;25.40;58.09;100405.58;1772295;79;21026;-71
2021/09/11 04:31:59;;;;;;;13.07;10.33;;;;;;;25.44;57.01;100407.95;1775613;79;20912;-70
2021/09/11 04:34:25;;;;;;;12.55;10.70;;;;;;;25.51;57.32;100406.84;1778707;78;21081;-70
2021/09/11 04:36:51;;;;;;;11.60;10.40;;;;;;;25.98;56.18;100402.73;1782784;78;21445;-67
2021/09/11 04:39:19;;;;;;;14.00;10.08;;;;;;;26.32;53.99;100405.31;1775596;78;21834;-70
2021/09/11 04:41:46;;;;;;;12.98;10.38;;;;;;;26.91;51.95;100411.57;1765990;78;21763;-71
2021/09/11 04:44:14;;;;;;;11.78;10.15;;;;;;;27.39;50.01;100412.01;1774485;79;20984;-72
2021/09/11 04:46:42;;;;;;;13.75;10.60;;;;;;;27.79;47.71;100407.88;1776450;78;21046;-72
2021/09/11 04:49:09;;;;;;;13.68;10.95;;;;;;;28.06;46.36;100408.47;1769690;79;21706;-70
2021/09/11 04:51:35;;;;;;;12.25;10.95;;;;;;;28.22;46.02;100406.30;1776757;78;22201;-74
2021/09/11 04:54:02;;;;;;;15.75;11.35;;;;;;;28.69;45.06;100400.86;1775452;78;20936;-70
2021/09/11 04:56:28;;;;;;;12.18;10.40;;;;;;;29.01;43.39;100395.88;1778606;78;21057;-70
2021/09/11 04:58:55;;;;;;;11.05;9.83;;;;;;;29.46;41.61;100395.36;1775442;78;20959;-71
2021/09/11 05:01:21;;;;;;;14.10;10.72;;;;;;;29.31;41.06;100395.17;1776049;79;21007;-69
2021/09/11 05:03:49;;;;;;;12.40;10.28;;;;;;;29.41;40.83;100400.08;1781140;78;21959;-70
2021/09/11 05:06:15;;;;;;;12.23;10.10;;;;;;;29.52;40.46;100396.05;1774659;78;21670;-70
2021/09/11 05:08:41;;;;;;;11.68;10.03;;;;;;;29.57;40.61;100390.53;1775113;78;21023;-70
2021/09/11 05:11:08;;;;;;;13.03;11.03;;;;;;;29.97;39.78;100387.38;1776904;78;20935;-70
2021/09/11 05:13:35;;;;;;;12.63;11.05;;;;;;;30.06;39.25;100396.27;1774473;78;21069;-71
2021/09/11 05:16:02;;;;;;;16.25;10.72;;;;;;;30.09;38.75;100386.80;1777256;79;21756;-69
2021/09/11 05:18:28;;;;;;;13.62;10.38;;;;;;;29.78;38.59;100395.67;1777055;78;21053;-70
2021/09/11 05:20:56;;;;;;;11.25;9.60;;;;;;;29.07;39.33;100388.77;1774467;78;20911;-68
2021/09/11 05:23:25;;;;;;;11.63;9.70;;;;;;;28.60;40.07;100390.84;1776225;78;21552;-68
2021/09/11 05:25:53;;;;;;;12.18;10.40;;;;;;;28.22;40.77;100386.19;1768877;78;21276;-69
2021/09/11 05:28:20;;;;;;;13.78;11.00;;;;;;;27.73;41.29;100396.17;1775410;79;22209;-69
2021/09/11 05:30:46;;;;;;;12.43;10.18;;;;;;;26.74;43.66;100404.56;1776877;79;21051;-69
2021/09/11 05:33:13;;;;;;;16.02;12.28;;;;;;;26.38;43.99;100396.96;1769079;78;20972;-68
2021/09/11 05:35:40;;;;;;;18.35;13.32;;;;;;;25.93;45.16;100400.91;1777527;78;21047;-70
2021/09/11 05:38:07;;;;;;;18.20;15.28;;;;;;;25.33;47.22;100403.76;1774773;79;21104;-68
2021/09/11 05:40:34;;;;;;;14.17;11.77;;;;;;;25.00;49.40;100410.08;1778347;78;22088;-70
2021/09/11 05:43:00;;;;;;;17.27;13.73;;;;;;;24.84;51.67;100409.87;1780066;78;21489;-69
2021/09/11 05:45:27;;;;;;;20.77;14.77;;;;;;;24.74;53.00;100406.73;1777715;78;21474;-68
2021/09/11 05:47:55;;;;;;;14.23;11.73;;;;;;;24.64;54.80;100411.31;1777871;78;22002;-69
2021/09/11 05:50:23;;;;;;;12.80;10.30;;;;;;;24.42;56.27;100411.11;1777107;79;21031;-69
2021/09/11 05:52:50;;;;;;;11.07;9.03;;;;;;;24.43;56.91;100414.03;1778912;78;21316;-70
2021/09/11 05:55:17;;;;;;;10.93;8.40;;;;;;;24.36;58.61;100413.52;1776941;79;20956;-67
2021/09/11 05:57:43;;;;;;;11.80;8.57;;;;;;;24.49;56.48;100404.16;1780014;78;20984;-69
2021/09/11 06:00:10;;;;;;;9.43;7.33;;;;;;;24.51;57.23;100410.03;1779796;78;21256;-70
2021/09/11 06:02:40;;;;;;;11.95;8.10;;;;;;;24.49;55.83;100408.95;1771293;78;26447;-70
2021/09/11 06:05:07;;;;;;;11.03;7.63;;;;;;;24.53;54.97;100407.88;1782633;78;21150;-69
2021/09/11 06:07:37;;;;;;;8.60;7.27;;;;;;;24.51;55.62;100406.83;1774259;78;20886;-68
2021/09/11 06:10:05;;;;;;;10.67;6.23;;;;;;;24.51;55.69;100408.70;1789790;78;22039;-69
2021/09/11 06:12:31;;;;;;;9.73;7.30;;;;;;;24.50;56.09;100407.88;1798128;79;20973;-70
2021/09/11 06:14:58;;;;;;;9.20;6.70;;;;;;;24.76;54.06;100411.25;1744892;80;21020;-70
2021/09/11 06:17:25;;;;;;;8.83;6.83;;;;;;;25.07;51.77;100401.75;1745758;80;21241;-69
2021/09/11 06:19:53;;;;;;;10.13;6.97;;;;;;;25.27;51.99;100407.55;1740005;80;22497;-69
2021/09/11 06:22:19;;;;;;;9.43;6.43;;;;;;;25.44;49.81;100407.16;1794422;79;20973;-69
2021/09/11 06:24:46;;;;;;;9.77;6.60;;;;;;;25.73;46.77;100408.00;1793253;78;20916;-69
2021/09/11 06:27:13;;;;;;;7.63;5.77;;;;;;;26.01;45.62;100405.63;1796341;79;20996;-69
2021/09/11 06:29:40;;;;;;;8.18;6.33;;;;;;;26.14;44.47;100402.85;1786880;79;22041;-68
2021/09/11 06:32:07;;;;;;;7.40;6.30;;;;;;;26.40;43.86;100401.49;1799205;78;21470;-70
2021/09/11 06:34:34;;;;;;;9.78;6.70;;;;;;;27.03;42.35;100401.78;1794445;79;21328;-70
2021/09/11 06:37:01;;;;;;;8.33;6.78;;;;;;;27.70;41.14;100403.48;1799308;79;20976;-71
2021/09/11 06:39:28;;;;;;;9.20;6.37;;;;;;;28.08;39.82;100408.19;1745063;80;22108;-72
2021/09/11 06:41:55;;;;;;;7.92;6.35;;;;;;;28.61;38.83;100401.81;1797719;78;21110;-69
2021/09/11 06:44:21;;;;;;;8.00;6.03;;;;;;;29.06;38.09;100400.60;1791878;77;21077;-72
2021/09/11 06:46:48;;;;;;;11.88;7.10;;;;;;;29.34;36.94;100407.20;1743842;80;21056;-74
2021/09/11 06:49:15;;;;;;;11.05;6.37;;;;;;;29.51;35.82;100409.20;1793734;78;21482;-71
2021/09/11 06:51:44;;;;;;;8.30;6.17;;;;;;;29.47;35.66;100410.92;1791826;78;20936;-69
2021/09/11 06:54:10;;;;;;;8.00;6.12;;;;;;;29.75;35.01;100414.30;1794934;78;21078;-71
2021/09/11 06:56:37;;;;;;;8.83;6.28;;;;;;;30.02;34.13;100411.98;1793582;77;22369;-70
2021/09/11 06:59:04;;;;;;;6.78;5.22;;;;;;;29.94;34.39;100401.98;1802381;78;20991;-71
2021/09/11 07:01:31;;;;;;;7.05;5.50;;;;;;;30.39;34.70;100409.95;1785946;79;20967;-71
2021/09/11 07:03:57;;;;;;;8.35;6.45;;;;;;;30.73;31.77;100405.20;1774804;78;20953;-70
2021/09/11 07:06:24;;;;;;;7.87;5.85;;;;;;;30.86;31.92;100407.52;1779291;78;21118;-69
2021/09/11 07:08:50;;;;;;;7.30;5.75;;;;;;;30.82;31.86;100411.40;1770945;78;21033;-70
2021/09/11 07:11:17;;;;;;;12.85;6.58;;;;;;;30.56;31.54;100409.97;1779307;78;21009;-69
2021/09/11 07:13:45;;;;;;;8.43;6.25;;;;;;;30.34;31.52;100404.69;1776688;78;21681;-68
2021/09/11 07:16:12;;;;;;;6.95;5.25;;;;;;;30.24;31.63;100405.78;1775417;78;20981;-70
2021/09/11 07:18:40;;;;;;;7.50;5.75;;;;;;;30.42;32.04;100402.58;1771402;78;21494;-71
2021/09/11 07:21:06;;;;;;;8.68;6.10;;;;;;;30.66;31.33;100403.52;1746646;80;21026;-70
2021/09/11 07:23:34;;;;;;;9.30;6.35;;;;;;;30.57;30.34;100404.03;1783661;78;21128;-67
2021/09/11 07:26:01;;;;;;;7.62;5.78;;;;;;;30.46;30.91;100407.59;1750845;80;21015;-71
2021/09/11 07:28:27;;;;;;;7.17;5.97;;;;;;;30.42;31.00;100409.30;1784781;78;21082;-70
2021/09/11 07:30:54;;;;;;;7.28;5.30;;;;;;;30.49;31.24;100403.70;1784176;78;21175;-72
2021/09/11 07:33:20;;;;;;;9.93;5.78;;;;;;;30.61;31.09;100408.50;1786722;78;21084;-70
2021/09/11 07:35:47;;;;;;;6.35;5.47;;;;;;;30.69;31.08;100406.93;1781869;78;21097;-70
2021/09/11 07:38:15;;;;;;;9.28;6.30;;;;;;;30.71;31.52;100404.70;1780665;78;20976;-70
2021/09/11 07:40:42;;;;;;;10.13;6.50;;;;;;;30.91;32.11;100406.02;1785035;78;22099;-70
2021/09/11 07:43:10;;;;;;;10.23;6.42;;;;;;;31.13;31.14;100410.45;1781887;78;21226;-71
2021/09/11 07:45:38;;;;;;;7.33;5.97;;;;;;;31.20;31.15;100403.48;1786888;78;20967;-69
2021/09/11 07:48:06;;;;;;;7.33;6.33;;;;;;;31.26;31.45;100396.84;1779738;78;21097;-66
2021/09/11 07:50:35;;;;;;;9.48;6.47;;;;;;;31.55;30.61;100401.33;1786292;78;21129;-70
2021/09/11 07:53:04;;;;;;;6.87;5.50;;;;;;;31.69;30.50;100402.73;1778605;78;21107;-71
2021/09/11 07:55:32;;;;;;;6.67;5.97;;;;;;;31.86;30.26;100409.20;1772906;78;21146;-70
2021/09/11 07:57:58;;;;;;;7.47;5.83;;;;;;;31.91;29.54;100407.13;1777387;78;21020;-68
2021/09/11 08:00:26;;;;;;;6.80;5.15;;;;;;;31.81;29.60;100407.45;1781503;78;21031;-71
2021/09/11 08:02:52;;;;;;;7.47;5.53;;;;;;;31.85;30.03;100409.76;1781202;78;21051;-73
2021/09/11 08:05:20;;;;;;;6.37;5.37;;;;;;;32.02;30.17;100401.39;1785074;78;21118;-70
2021/09/11 08:07:46;;;;;;;7.55;5.45;;;;;;;32.37;29.72;100397.97;1784207;78;21125;-74
2021/09/11 08:10:13;;;;;;;6.40;4.95;;;;;;;32.21;29.36;100404.48;1785559;78;22122;-69
2021/09/11 08:12:39;;;;;;;7.03;5.00;;;;;;;32.21;29.22;100396.39;1778558;78;20948;-71
2021/09/11 08:15:07;;;;;;;527.08;473.62;;;;;;;32.05;28.77;100390.75;1782491;78;21368;-71
2021/09/11 08:17:34;;;;;;;756.70;679.60;;;;;;;31.95;29.21;100380.32;1779920;79;21075;-71
2021/09/11 08:20:04;;;;;;;102.02;91.63;;;;;;;31.91;29.31;100381.52;1752792;80;20865;-70
2021/09/11 08:22:31;;;;;;;307.37;275.38;;;;;;;31.84;29.52;100381.76;1784709;77;20964;-73
2021/09/11 08:24:58;;;;;;;335.13;298.13;;;;;;;31.90;29.58;100379.95;1786268;79;20928;-71
2021/09/11 08:27:24;;;;;;;137.10;122.67;;;;;;;31.98;28.90;100372.94;1782989;77;20955;-69
2021/09/11 08:29:51;;;;;;;19.67;16.73;;;;;;;31.92;29.50;100370.17;1782185;77;21116;-68
2021/09/11 08:32:17;;;;;;;12.47;10.50;;;;;;;32.05;29.21;100373.23;1779402;77;22058;-70
2021/09/11 08:34:44;;;;;;;19.65;15.43;;;;;;;32.34;29.21;100363.54;1790320;77;21325;-69
2021/09/11 08:37:10;;;;;;;7.30;5.90;;;;;;;32.52;28.62;100358.30;1784919;77;20941;-70
2021/09/11 08:39:37;;;;;;;8.95;4.72;;;;;;;32.58;28.50;100353.48;1779412;77;21057;-72
2021/09/11 08:42:04;;;;;;;6.37;4.97;;;;;;;32.47;28.30;100353.10;1783095;78;21456;-71
2021/09/11 08:44:31;;;;;;;18.07;15.78;;;;;;;32.45;27.74;100356.67;1784805;78;21142;-73
2021/09/11 08:46:58;;;;;;;17.35;13.15;;;;;;;32.27;27.94;100350.56;1787695;79;20964;-73
2021/09/11 08:49:24;;;;;;;9.05;6.30;;;;;;;31.95;27.49;100373.58;1785841;78;20968;-72
2021/09/11 08:51:52;;;;;;;14.58;10.50;;;;;;;31.57;28.41;100358.14;1784946;78;20902;-71
2021/09/11 08:54:21;;;;;;;14.75;8.85;;;;;;;31.41;28.20;100355.73;1782409;78;21474;-67
2021/09/11 08:56:51;;;;;;;6.45;4.70;;;;;;;31.22;28.00;100351.45;1783211;78;21637;-69
2021/09/11 08:59:20;;;;;;;7.40;4.23;;;;;;;31.22;28.72;100348.77;1779792;78;20891;-70
2021/09/11 09:02:06;;;;;;;8.75;6.28;;;;;;;31.40;28.19;100346.05;1783110;78;21437;-70
2021/09/11 09:04:54;;;;;;;6.83;4.83;;;;;;;31.29;28.09;100336.70;1741891;80;22278;-70
2021/09/11 09:07:39;;;;;;;9.28;5.00;;;;;;;31.28;28.98;100340.51;1738978;80;20932;-70
2021/09/11 09:10:16;;;;;;;13.38;8.90;;;;;;;31.37;27.39;100342.67;1742996;80;21136;-71
2021/09/11 09:12:45;;;;;;;11.28;7.92;;;;;;;31.31;27.91;100350.68;1773038;78;20900;-71
2021/09/11 09:15:24;;;;;;;9.28;5.67;;;;;;;31.22;27.33;100345.28;1778272;78;20959;-71
2021/09/11 09:17:54;;;;;;;8.60;6.90;;;;;;;31.15;28.57;100335.55;1782753;78;21016;-71
2021/09/11 09:20:27;;;;;;;7.53;3.77;;;;;;;31.44;27.94;100332.17;1783328;78;21024;-69
2021/09/11 09:23:06;;;;;;;5.03;3.98;;;;;;;31.57;27.37;100332.55;1785498;78;21163;-69
2021/09/11 09:25:37;;;;;;;6.15;3.70;;;;;;;31.89;26.96;100318.25;1773969;78;20895;-70
2021/09/11 09:28:08;;;;;;;6.15;4.78;;;;;;;32.17;26.59;100312.63;1741335;80;21067;-68
2021/09/11 09:30:47;;;;;;;7.50;4.17;;;;;;;32.49;26.36;100313.08;1742238;79;21602;-69
2021/09/11 09:33:20;;;;;;;12.15;7.75;;;;;;;32.78;24.77;100310.08;1738109;79;21028;-68
2021/09/11 09:35:47;;;;;;;9.00;7.22;;;;;;;32.84;25.37;100312.78;1739944;80;21933;-69
2021/09/11 09:38:14;;;;;;;9.48;6.62;;;;;;;32.97;24.97;100300.17;1742906;80;21091;-67
2021/09/11 09:40:49;;;;;;;8.78;4.75;;;;;;;33.00;24.80;100298.95;1740217;80;21025;-69
2021/09/11 09:43:42;;;;;;;5.12;4.20;;;;;;;33.33;24.84;100295.41;1737686;80;20918;-69
2021/09/11 09:46:15;;;;;;;6.08;4.70;;;;;;;33.36;24.21;100300.14;1744298;80;20989;-69
2021/09/11 09:48:44;;;;;;;6.33;4.90;;;;;;;32.98;25.09;100297.69;1740655;80;21162;-68
2021/09/11 09:51:17;;;;;;;5.70;4.53;;;;;;;33.10;25.15;100301.20;1739047;80;21090;-70
2021/09/11 09:53:48;;;;;;;6.03;4.03;;;;;;;33.15;24.90;100296.97;1748777;80;20940;-70
2021/09/11 09:56:15;;;;;;;;;;;;;;;33.28;25.11;100299.69;1746097;80;20973;-69
2021/09/11 09:58:42;;;;;;;9.93;4.33;;;;;;;33.48;24.25;100304.80;1739237;80;20199;-68
2021/09/11 10:01:09;;;;;;;5.62;4.37;;;;;;;33.55;23.40;100294.23;1733028;80;22756;-69
2021/09/11 10:03:36;;;;;;;6.83;4.30;;;;;;;33.49;23.58;100302.32;1757593;78;20975;-67
2021/09/11 10:06:14;;;;;;;5.42;4.08;;;;;;;33.50;24.09;100285.00;1777621;78;20966;-69
2021/09/11 10:08:47;;;;;;;6.53;4.47;;;;;;;33.65;24.05;100288.39;1769591;78;21061;-68
2021/09/11 10:11:14;;;;;;;4.87;4.00;;;;;;;33.75;24.05;100281.73;1777210;78;21465;-68
2021/09/11 10:14:02;;;;;;;7.42;3.80;;;;;;;33.83;23.62;100294.34;1773134;78;20940;-69
2021/09/11 10:16:36;;;;;;;8.38;5.17;;;;;;;33.81;23.51;100276.33;1777431;78;20990;-71
2021/09/11 10:19:20;;;;;;;5.87;4.05;;;;;;;33.50;23.14;100280.38;1777266;78;20910;-70
2021/09/11 10:21:50;;;;;;;5.10;4.20;;;;;;;33.24;24.28;100281.22;1771358;79;21418;-68
2021/09/11 10:24:25;;;;;;;5.90;4.30;;;;;;;33.45;24.26;100281.91;1778844;78;21439;-71
2021/09/11 10:26:58;;;;;;;8.70;5.28;;;;;;;33.48;24.29;100279.13;1778154;78;21118;-69
2021/09/11 10:29:37;;;;;;;10.13;5.30;;;;;;;33.38;24.33;100285.75;1777545;78;20921;-70
2021/09/11 10:32:24;;;;;;;6.90;4.95;;;;;;;33.33;24.23;100278.63;1772090;80;21669;-70
2021/09/11 10:34:58;;;;;;;9.38;4.42;;;;;;;33.31;24.26;100274.14;1774730;79;20998;-71
2021/09/11 10:37:47;;;;;;;6.03;4.33;;;;;;;33.31;24.26;100274.14;1773264;78;21029;-68
2021/09/11 10:40:33;;;;;;;8.60;4.50;;;;;;;33.17;24.62;100275.01;1778564;78;21182;-69
2021/09/11 10:43:19;;;;;;;4.92;3.90;;;;;;;33.08;24.24;100271.63;1771139;78;21005;-69
2021/09/11 10:46:07;;;;;;;6.62;4.60;;;;;;;32.84;24.42;100263.63;1773176;78;20860;-68
2021/09/11 10:48:39;;;;;;;6.95;4.10;;;;;;;32.86;23.93;100263.31;1772427;79;21512;-69
2021/09/11 10:51:34;;;;;;;6.53;4.75;;;;;;;32.86;23.93;100263.31;1773059;78;21017;-70
2021/09/11 10:54:27;;;;;;;6.10;4.47;;;;;;;32.83;24.60;100258.57;1777245;79;21143;-68
2021/09/11 10:57:04;;;;;;;7.42;4.65;;;;;;;32.76;24.33;100256.97;1772087;79;20920;-69
2021/09/11 10:59:42;;;;;;;25.70;19.40;;;;;;;32.58;24.83;100246.34;1762743;80;20949;-67
2021/09/11 11:02:25;;;;;;;42.67;38.05;;;;;;;32.69;24.94;100244.81;1775269;79;21141;-70
2021/09/11 11:04:55;;;;;;;5.58;4.55;;;;;;;32.72;24.96;100238.51;1791625;77;21043;-70
2021/09/11 11:07:31;;;;;;;6.92;4.90;;;;;;;32.67;24.12;100244.91;1817743;76;20892;-69
2021/09/11 11:10:06;;;;;;;5.92;4.15;;;;;;;32.46;24.34;100240.87;1820415;76;21828;-69
2021/09/11 11:12:44;;;;;;;6.25;4.45;;;;;;;32.51;24.44;100235.86;1823649;77;21083;-69
2021/09/11 11:15:28;;;;;;;7.90;4.70;;;;;;;32.55;24.71;100238.91;1811486;76;21008;-70
2021/09/11 11:17:55;;;;;;;7.05;5.78;;;;;;;32.56;24.86;100234.30;1819726;77;21095;-69
2021/09/11 11:20:25;;;;;;;6.62;4.80;;;;;;;32.53;24.68;100241.13;1820342;76;20865;-69